PPVQA SBRJ-SBVT
Flight info
| Callsign | PPVQA |
|---|---|
| Flight time | 0h 47m |
| Altitude | 31000 |
| Route | TISVA UL206 TODET |
| Aircraft | B737/M-SDE2E3FGHIRWXY/LB1 |
Departure
| Time | 2026-04-16 15:06 |
|---|---|
| Airport | Santos Dumont Airport (SBRJ) |
Arrival
| Time | 2026-04-16 15:53 |
|---|---|
| Airport | Eurico de Aguiar Salles International Airport (SBVT) |
| Time | Latitude | Longitude | Altitude | Speed | Heading |
|---|---|---|---|---|---|
| 2026-04-16 14:44 | -22.91136 | -43.16586 | 19 ft | 0 kts | 266° |
| 2026-04-16 14:59 | -22.91136 | -43.16585 | 19 ft | 1 kts | 266° |
| 2026-04-16 15:00 | -22.91135 | -43.16571 | 19 ft | 3 kts | 277° |
| 2026-04-16 15:00 | -22.91142 | -43.16551 | 19 ft | 3 kts | 301° |
| 2026-04-16 15:00 | -22.91155 | -43.16535 | 19 ft | 3 kts | 324° |
| 2026-04-16 15:00 | -22.91174 | -43.16526 | 19 ft | 3 kts | 345° |
| 2026-04-16 15:01 | -22.91186 | -43.16523 | 19 ft | 0 kts | 356° |
| 2026-04-16 15:02 | -22.91151 | -43.16526 | 19 ft | 8 kts | 356° |
| 2026-04-16 15:02 | -22.91116 | -43.16529 | 19 ft | 7 kts | 353° |
| 2026-04-16 15:02 | -22.91054 | -43.16546 | 19 ft | 11 kts | 338° |
| 2026-04-16 15:03 | -22.90966 | -43.16562 | 19 ft | 14 kts | 354° |
| 2026-04-16 15:03 | -22.90862 | -43.16569 | 19 ft | 16 kts | 1° |
| 2026-04-16 15:03 | -22.90761 | -43.16559 | 19 ft | 13 kts | 355° |
| 2026-04-16 15:03 | -22.90662 | -43.16564 | 19 ft | 15 kts | 358° |
| 2026-04-16 15:04 | -22.90559 | -43.16557 | 19 ft | 14 kts | 358° |
| 2026-04-16 15:04 | -22.90512 | -43.16549 | 19 ft | 6 kts | 42° |
| 2026-04-16 15:04 | -22.90497 | -43.16505 | 19 ft | 7 kts | 83° |
| 2026-04-16 15:04 | -22.90495 | -43.16451 | 19 ft | 8 kts | 92° |
| 2026-04-16 15:05 | -22.90492 | -43.16391 | 19 ft | 9 kts | 85° |
| 2026-04-16 15:05 | -22.90506 | -43.16332 | 19 ft | 8 kts | 146° |
| 2026-04-16 15:05 | -22.90558 | -43.16315 | 19 ft | 9 kts | 177° |
| 2026-04-16 15:05 | -22.90848 | -43.16297 | 19 ft | 84 kts | 175° |
| 2026-04-16 15:06 | -22.91671 | -43.16237 | 185 ft | 137 kts | 174° |
| 2026-04-16 15:06 | -22.92625 | -43.15926 | 861 ft | 153 kts | 154° |
| 2026-04-16 15:06 | -22.93475 | -43.15255 | 1748 ft | 146 kts | 137° |
| 2026-04-16 15:06 | -22.94200 | -43.14492 | 2573 ft | 149 kts | 134° |
| 2026-04-16 15:07 | -22.94983 | -43.13588 | 3046 ft | 177 kts | 133° |
| 2026-04-16 15:07 | -22.95935 | -43.12622 | 3485 ft | 203 kts | 137° |
| 2026-04-16 15:07 | -22.97088 | -43.11536 | 3856 ft | 233 kts | 139° |
| 2026-04-16 15:07 | -22.98389 | -43.10312 | 4571 ft | 255 kts | 138° |
| 2026-04-16 15:08 | -22.99769 | -43.09007 | 5485 ft | 268 kts | 139° |
| 2026-04-16 15:08 | -23.01188 | -43.07661 | 6628 ft | 274 kts | 136° |
| 2026-04-16 15:08 | -23.02238 | -43.05942 | 7719 ft | 279 kts | 112° |
| 2026-04-16 15:08 | -23.02573 | -43.03829 | 8785 ft | 286 kts | 89° |
| 2026-04-16 15:09 | -23.02106 | -43.01721 | 9793 ft | 293 kts | 66° |
| 2026-04-16 15:09 | -23.01063 | -42.99809 | 10757 ft | 300 kts | 58° |
| 2026-04-16 15:09 | -23.00021 | -42.97789 | 11489 ft | 316 kts | 65° |
| 2026-04-16 15:09 | -22.99118 | -42.95524 | 12000 ft | 337 kts | 69° |
| 2026-04-16 15:10 | -22.98214 | -42.93089 | 12428 ft | 359 kts | 69° |
| 2026-04-16 15:10 | -22.97065 | -42.90576 | 12847 ft | 380 kts | 57° |
| 2026-04-16 15:10 | -22.95310 | -42.88375 | 13549 ft | 389 kts | 43° |
| 2026-04-16 15:10 | -22.93871 | -42.87156 | 14107 ft | 393 kts | 34° |
| 2026-04-16 15:11 | -22.91430 | -42.85734 | 15057 ft | 395 kts | 25° |
| 2026-04-16 15:11 | -22.88964 | -42.84350 | 15830 ft | 401 kts | 34° |
| 2026-04-16 15:11 | -22.86810 | -42.82457 | 16541 ft | 404 kts | 47° |
| 2026-04-16 15:11 | -22.85133 | -42.80019 | 17270 ft | 405 kts | 61° |
| 2026-04-16 15:12 | -22.83782 | -42.77304 | 17854 ft | 413 kts | 65° |
| 2026-04-16 15:12 | -22.82477 | -42.74481 | 18513 ft | 417 kts | 66° |
| 2026-04-16 15:12 | -22.81180 | -42.71701 | 19133 ft | 422 kts | 65° |
| 2026-04-16 15:12 | -22.79814 | -42.68821 | 19746 ft | 427 kts | 65° |
| 2026-04-16 15:13 | -22.78440 | -42.65958 | 20338 ft | 431 kts | 65° |
| 2026-04-16 15:13 | -22.77065 | -42.63116 | 21362 ft | 421 kts | 64° |
| 2026-04-16 15:13 | -22.75687 | -42.60283 | 22273 ft | 419 kts | 63° |
| 2026-04-16 15:13 | -22.74321 | -42.57486 | 22895 ft | 424 kts | 63° |
| 2026-04-16 15:14 | -22.72940 | -42.54649 | 23443 ft | 428 kts | 63° |
| 2026-04-16 15:14 | -22.71530 | -42.51747 | 24019 ft | 432 kts | 63° |
| 2026-04-16 15:14 | -22.70121 | -42.48864 | 24581 ft | 435 kts | 63° |
| 2026-04-16 15:14 | -22.68678 | -42.45923 | 25138 ft | 439 kts | 63° |
| 2026-04-16 15:15 | -22.67241 | -42.43003 | 25664 ft | 442 kts | 63° |
| 2026-04-16 15:15 | -22.65788 | -42.40056 | 26134 ft | 446 kts | 62° |
| 2026-04-16 15:15 | -22.64325 | -42.37093 | 26608 ft | 450 kts | 62° |
| 2026-04-16 15:15 | -22.62842 | -42.34091 | 27065 ft | 453 kts | 62° |
| 2026-04-16 15:16 | -22.61355 | -42.31084 | 27508 ft | 457 kts | 62° |
| 2026-04-16 15:16 | -22.59747 | -42.28059 | 27941 ft | 460 kts | 57° |
| 2026-04-16 15:16 | -22.57845 | -42.25274 | 28342 ft | 463 kts | 50° |
| 2026-04-16 15:16 | -22.55642 | -42.22729 | 28726 ft | 466 kts | 44° |
| 2026-04-16 15:17 | -22.53237 | -42.20386 | 29218 ft | 466 kts | 40° |
| 2026-04-16 15:17 | -22.50760 | -42.18145 | 29773 ft | 464 kts | 39° |
| 2026-04-16 15:17 | -22.48234 | -42.15892 | 30299 ft | 464 kts | 39° |
| 2026-04-16 15:17 | -22.45760 | -42.13681 | 30801 ft | 463 kts | 39° |
| 2026-04-16 15:18 | -22.43281 | -42.11462 | 30983 ft | 464 kts | 39° |
| 2026-04-16 15:18 | -22.38319 | -42.07014 | 30997 ft | 462 kts | 40° |
| 2026-04-16 15:19 | -22.33346 | -42.02531 | 31000 ft | 461 kts | 40° |
| 2026-04-16 15:19 | -22.28425 | -41.98112 | 31000 ft | 461 kts | 40° |
| 2026-04-16 15:20 | -22.23489 | -41.93690 | 31000 ft | 461 kts | 39° |
| 2026-04-16 15:20 | -22.18497 | -41.89222 | 31000 ft | 461 kts | 39° |
| 2026-04-16 15:21 | -22.13561 | -41.84806 | 31000 ft | 461 kts | 40° |
| 2026-04-16 15:21 | -22.08608 | -41.80373 | 31001 ft | 461 kts | 39° |
| 2026-04-16 15:22 | -22.03672 | -41.75964 | 31000 ft | 461 kts | 39° |
| 2026-04-16 15:22 | -21.98738 | -41.71563 | 31000 ft | 461 kts | 39° |
| 2026-04-16 15:23 | -21.93804 | -41.67166 | 31000 ft | 461 kts | 39° |
| 2026-04-16 15:23 | -21.88842 | -41.62749 | 31000 ft | 461 kts | 40° |
| 2026-04-16 15:24 | -21.83900 | -41.58344 | 31000 ft | 461 kts | 39° |
| 2026-04-16 15:24 | -21.78967 | -41.53960 | 31000 ft | 461 kts | 39° |
| 2026-04-16 15:25 | -21.74030 | -41.49579 | 31000 ft | 461 kts | 39° |
| 2026-04-16 15:25 | -21.69051 | -41.45165 | 31000 ft | 461 kts | 39° |
| 2026-04-16 15:26 | -21.64108 | -41.40783 | 31000 ft | 461 kts | 39° |
| 2026-04-16 15:26 | -21.59093 | -41.36337 | 30993 ft | 473 kts | 35° |
| 2026-04-16 15:27 | -21.53943 | -41.31780 | 30995 ft | 486 kts | 35° |
| 2026-04-16 15:27 | -21.48676 | -41.27122 | 30994 ft | 496 kts | 35° |
| 2026-04-16 15:28 | -21.43315 | -41.22382 | 30993 ft | 497 kts | 36° |
| 2026-04-16 15:28 | -21.37963 | -41.17658 | 30993 ft | 501 kts | 36° |
| 2026-04-16 15:29 | -21.32592 | -41.12924 | 30992 ft | 501 kts | 36° |
| 2026-04-16 15:29 | -21.29898 | -41.10546 | 30990 ft | 489 kts | 36° |
| 2026-04-16 15:29 | -21.27300 | -41.08257 | 30991 ft | 480 kts | 36° |
| 2026-04-16 15:30 | -21.22203 | -41.03774 | 30551 ft | 466 kts | 37° |
| 2026-04-16 15:30 | -21.19714 | -41.01588 | 30004 ft | 462 kts | 37° |
| 2026-04-16 15:30 | -21.17208 | -40.99388 | 29420 ft | 459 kts | 38° |
| 2026-04-16 15:30 | -21.14754 | -40.97235 | 28833 ft | 455 kts | 38° |
| 2026-04-16 15:31 | -21.12311 | -40.95092 | 28248 ft | 452 kts | 38° |
| 2026-04-16 15:31 | -21.09895 | -40.92974 | 27667 ft | 448 kts | 38° |
| 2026-04-16 15:31 | -21.07500 | -40.90875 | 27091 ft | 444 kts | 39° |
| 2026-04-16 15:31 | -21.05127 | -40.88794 | 26517 ft | 440 kts | 39° |
| 2026-04-16 15:32 | -21.02771 | -40.86724 | 25946 ft | 436 kts | 39° |
| 2026-04-16 15:32 | -21.00411 | -40.84655 | 25372 ft | 432 kts | 39° |
| 2026-04-16 15:32 | -20.98103 | -40.82634 | 24811 ft | 428 kts | 39° |
| 2026-04-16 15:32 | -20.95809 | -40.80626 | 24247 ft | 424 kts | 39° |
| 2026-04-16 15:33 | -20.93546 | -40.78647 | 23692 ft | 420 kts | 40° |
| 2026-04-16 15:33 | -20.91291 | -40.76676 | 23134 ft | 417 kts | 39° |
| 2026-04-16 15:33 | -20.89020 | -40.74692 | 22570 ft | 414 kts | 39° |
| 2026-04-16 15:33 | -20.86811 | -40.72762 | 22020 ft | 411 kts | 39° |
| 2026-04-16 15:34 | -20.84608 | -40.70839 | 21468 ft | 408 kts | 39° |
| 2026-04-16 15:34 | -20.82398 | -40.68961 | 20916 ft | 406 kts | 36° |
| 2026-04-16 15:34 | -20.80048 | -40.67309 | 20363 ft | 403 kts | 30° |
| 2026-04-16 15:34 | -20.77570 | -40.65945 | 19808 ft | 400 kts | 23° |
| 2026-04-16 15:35 | -20.75849 | -40.65157 | 19435 ft | 398 kts | 20° |
| 2026-04-16 15:35 | -20.73256 | -40.64056 | 18874 ft | 395 kts | 19° |
| 2026-04-16 15:35 | -20.70715 | -40.62976 | 18321 ft | 393 kts | 20° |
| 2026-04-16 15:35 | -20.68193 | -40.61893 | 17767 ft | 390 kts | 20° |
| 2026-04-16 15:36 | -20.65686 | -40.60809 | 17213 ft | 387 kts | 21° |
| 2026-04-16 15:36 | -20.63207 | -40.59727 | 16659 ft | 384 kts | 21° |
| 2026-04-16 15:36 | -20.60744 | -40.58649 | 16103 ft | 382 kts | 21° |
| 2026-04-16 15:36 | -20.58302 | -40.57579 | 15547 ft | 379 kts | 21° |
| 2026-04-16 15:37 | -20.55839 | -40.56500 | 14990 ft | 375 kts | 21° |
| 2026-04-16 15:37 | -20.53449 | -40.55452 | 14446 ft | 372 kts | 21° |
| 2026-04-16 15:37 | -20.51072 | -40.54409 | 13905 ft | 369 kts | 21° |
| 2026-04-16 15:37 | -20.48616 | -40.53332 | 13336 ft | 365 kts | 22° |
| 2026-04-16 15:38 | -20.46255 | -40.52300 | 12889 ft | 358 kts | 22° |
| 2026-04-16 15:38 | -20.44002 | -40.51307 | 12706 ft | 344 kts | 22° |
| 2026-04-16 15:38 | -20.41812 | -40.50346 | 12527 ft | 330 kts | 22° |
| 2026-04-16 15:38 | -20.39729 | -40.49435 | 12355 ft | 317 kts | 22° |
| 2026-04-16 15:39 | -20.37731 | -40.48559 | 12185 ft | 305 kts | 22° |
| 2026-04-16 15:39 | -20.35804 | -40.47726 | 12019 ft | 294 kts | 20° |
| 2026-04-16 15:39 | -20.33874 | -40.47086 | 11669 ft | 289 kts | 14° |
| 2026-04-16 15:39 | -20.31895 | -40.46597 | 11248 ft | 288 kts | 12° |
| 2026-04-16 15:40 | -20.29951 | -40.46138 | 10803 ft | 288 kts | 12° |
| 2026-04-16 15:40 | -20.28003 | -40.45665 | 10353 ft | 287 kts | 12° |
| 2026-04-16 15:40 | -20.26070 | -40.45191 | 9897 ft | 282 kts | 12° |
| 2026-04-16 15:40 | -20.24182 | -40.44723 | 9488 ft | 275 kts | 12° |
| 2026-04-16 15:41 | -20.22360 | -40.44271 | 9160 ft | 265 kts | 13° |
| 2026-04-16 15:41 | -20.20593 | -40.43847 | 8829 ft | 256 kts | 11° |
| 2026-04-16 15:41 | -20.18880 | -40.43445 | 8499 ft | 248 kts | 13° |
| 2026-04-16 15:41 | -20.17227 | -40.43018 | 8171 ft | 242 kts | 13° |
| 2026-04-16 15:42 | -20.15618 | -40.42605 | 7844 ft | 236 kts | 13° |
| 2026-04-16 15:42 | -20.14039 | -40.42206 | 7514 ft | 231 kts | 13° |
| 2026-04-16 15:42 | -20.12499 | -40.41821 | 7202 ft | 224 kts | 13° |
| 2026-04-16 15:42 | -20.11021 | -40.41399 | 6934 ft | 217 kts | 21° |
| 2026-04-16 15:43 | -20.09789 | -40.40515 | 6662 ft | 208 kts | 47° |
| 2026-04-16 15:43 | -20.09029 | -40.39252 | 6415 ft | 195 kts | 66° |
| 2026-04-16 15:43 | -20.08565 | -40.37935 | 6170 ft | 185 kts | 73° |
| 2026-04-16 15:43 | -20.08197 | -40.36666 | 5946 ft | 175 kts | 74° |
| 2026-04-16 15:44 | -20.07840 | -40.35431 | 5736 ft | 171 kts | 74° |
| 2026-04-16 15:44 | -20.07488 | -40.34231 | 5554 ft | 172 kts | 74° |
| 2026-04-16 15:44 | -20.07127 | -40.33015 | 5357 ft | 173 kts | 73° |
| 2026-04-16 15:44 | -20.06764 | -40.31800 | 5159 ft | 173 kts | 71° |
| 2026-04-16 15:45 | -20.06397 | -40.30575 | 4959 ft | 174 kts | 71° |
| 2026-04-16 15:45 | -20.06027 | -40.29343 | 4764 ft | 176 kts | 71° |
| 2026-04-16 15:45 | -20.05835 | -40.28087 | 4529 ft | 170 kts | 93° |
| 2026-04-16 15:45 | -20.06149 | -40.26901 | 4344 ft | 166 kts | 116° |
| 2026-04-16 15:46 | -20.06718 | -40.25841 | 4143 ft | 161 kts | 124° |
| 2026-04-16 15:46 | -20.07328 | -40.24858 | 3927 ft | 159 kts | 125° |
| 2026-04-16 15:46 | -20.07926 | -40.23879 | 3720 ft | 154 kts | 124° |
| 2026-04-16 15:46 | -20.08496 | -40.22929 | 3515 ft | 149 kts | 124° |
| 2026-04-16 15:47 | -20.09043 | -40.22008 | 3314 ft | 146 kts | 124° |
| 2026-04-16 15:47 | -20.09579 | -40.21107 | 3113 ft | 141 kts | 125° |
| 2026-04-16 15:47 | -20.10102 | -40.20225 | 2914 ft | 137 kts | 126° |
| 2026-04-16 15:47 | -20.10705 | -40.19475 | 2700 ft | 130 kts | 151° |
| 2026-04-16 15:48 | -20.11533 | -40.19351 | 2523 ft | 119 kts | 193° |
| 2026-04-16 15:48 | -20.12299 | -40.19673 | 2403 ft | 116 kts | 208° |
| 2026-04-16 15:48 | -20.12999 | -40.20105 | 2272 ft | 117 kts | 211° |
| 2026-04-16 15:48 | -20.13679 | -40.20580 | 2144 ft | 117 kts | 211° |
| 2026-04-16 15:49 | -20.14353 | -40.21065 | 2031 ft | 118 kts | 209° |
| 2026-04-16 15:49 | -20.15113 | -40.21609 | 1956 ft | 141 kts | 219° |
| 2026-04-16 15:49 | -20.15904 | -40.22163 | 1919 ft | 132 kts | 218° |
| 2026-04-16 15:49 | -20.16666 | -40.22667 | 1747 ft | 126 kts | 216° |
| 2026-04-16 15:50 | -20.17402 | -40.23151 | 1563 ft | 121 kts | 216° |
| 2026-04-16 15:50 | -20.18099 | -40.23609 | 1348 ft | 118 kts | 214° |
| 2026-04-16 15:50 | -20.18795 | -40.24067 | 1151 ft | 115 kts | 213° |
| 2026-04-16 15:50 | -20.19475 | -40.24514 | 1015 ft | 115 kts | 212° |
| 2026-04-16 15:51 | -20.20154 | -40.24965 | 893 ft | 116 kts | 212° |
| 2026-04-16 15:51 | -20.20836 | -40.25419 | 767 ft | 115 kts | 211° |
| 2026-04-16 15:51 | -20.21525 | -40.25878 | 641 ft | 116 kts | 211° |
| 2026-04-16 15:51 | -20.22206 | -40.26332 | 517 ft | 116 kts | 210° |
| 2026-04-16 15:52 | -20.22895 | -40.26789 | 405 ft | 117 kts | 210° |
| 2026-04-16 15:52 | -20.23583 | -40.27242 | 301 ft | 117 kts | 210° |
| 2026-04-16 15:52 | -20.24286 | -40.27700 | 201 ft | 117 kts | 210° |
| 2026-04-16 15:52 | -20.24976 | -40.28152 | 105 ft | 116 kts | 210° |
| 2026-04-16 15:53 | -20.25660 | -40.28595 | 42 ft | 113 kts | 209° |
| 2026-04-16 15:53 | -20.26235 | -40.28963 | 19 ft | 56 kts | 211° |
| 2026-04-16 15:53 | -20.26332 | -40.29028 | 19 ft | 8 kts | 212° |
| 2026-04-16 15:53 | -20.26378 | -40.29060 | 19 ft | 6 kts | 230° |
| 2026-04-16 15:54 | -20.26381 | -40.29086 | 19 ft | 2 kts | 291° |
| 2026-04-16 15:54 | -20.26370 | -40.29112 | 19 ft | 8 kts | 308° |
| 2026-04-16 15:54 | -20.26279 | -40.29135 | 19 ft | 20 kts | 350° |
| 2026-04-16 15:54 | -20.26130 | -40.29080 | 19 ft | 27 kts | 31° |
| 2026-04-16 15:55 | -20.26012 | -40.29000 | 19 ft | 4 kts | 32° |
| 2026-04-16 15:55 | -20.25970 | -40.29018 | 19 ft | 12 kts | 301° |
| 2026-04-16 15:55 | -20.25968 | -40.29022 | 19 ft | 0 kts | 301° |